createdAt,value
2023-05-04T00:02:11.124Z,89.24
2023-05-04T00:04:37.788Z,88.53
2023-05-04T00:07:04.415Z,88.96
2023-05-04T00:09:31.725Z,89.03
2023-05-04T00:11:58.342Z,88.85
2023-05-04T00:14:25.036Z,89.68
2023-05-04T00:16:51.683Z,90.47
2023-05-04T00:19:19.590Z,90.48
2023-05-04T00:21:46.524Z,89.91
2023-05-04T00:24:13.173Z,89.89
2023-05-04T00:26:40.156Z,88.66
2023-05-04T00:29:06.756Z,89.03
2023-05-04T00:31:33.392Z,86.93
2023-05-04T00:33:59.998Z,85.20
2023-05-04T00:36:26.723Z,85.84
2023-05-04T00:38:55.149Z,85.55
2023-05-04T00:41:22.231Z,86.03
2023-05-04T00:43:49.260Z,87.35
2023-05-04T00:46:16.380Z,89.53
2023-05-04T00:48:46.219Z,88.70
2023-05-04T00:51:14.767Z,89.74
2023-05-04T00:53:42.099Z,89.64
2023-05-04T00:56:08.932Z,90.66
2023-05-04T00:58:35.891Z,90.48
2023-05-04T01:01:03.548Z,91.17
2023-05-04T01:03:31.504Z,92.02
2023-05-04T01:06:26.463Z,91.25
2023-05-04T01:09:02.850Z,91.39
2023-05-04T01:11:48.497Z,90.95
2023-05-04T01:14:15.546Z,92.99
2023-05-04T01:16:42.110Z,92.57
2023-05-04T01:19:08.857Z,92.02
2023-05-04T01:21:36.917Z,91.08
2023-05-04T01:24:03.698Z,92.09
2023-05-04T01:26:38.054Z,93.01
2023-05-04T01:29:14.256Z,93.33
2023-05-04T01:31:42.449Z,94.56
2023-05-04T01:34:09.450Z,93.86
2023-05-04T01:36:36.504Z,94.27
2023-05-04T01:39:03.789Z,94.08
2023-05-04T01:41:30.867Z,94.03
2023-05-04T01:43:58.385Z,91.56
2023-05-04T01:46:25.123Z,89.53
2023-05-04T01:48:51.858Z,87.86
2023-05-04T01:51:18.455Z,87.93
2023-05-04T01:53:45.138Z,86.68
2023-05-04T01:56:11.826Z,85.25
2023-05-04T01:58:38.559Z,87.80
2023-05-04T02:01:05.172Z,90.22
2023-05-04T02:03:31.968Z,87.10
2023-05-04T02:05:58.796Z,85.81
2023-05-04T02:08:25.639Z,86.06
2023-05-04T02:10:52.580Z,86.66
2023-05-04T02:13:19.613Z,86.48
2023-05-04T02:15:46.413Z,84.95
2023-05-04T02:18:13.249Z,86.26
2023-05-04T02:20:39.978Z,86.09
2023-05-04T02:23:07.196Z,87.04
2023-05-04T02:25:33.861Z,87.76
2023-05-04T02:28:00.809Z,86.23
2023-05-04T02:30:27.482Z,83.97
2023-05-04T02:32:54.105Z,81.69
2023-05-04T02:35:20.914Z,78.07
2023-05-04T02:37:47.566Z,77.58
2023-05-04T02:40:14.388Z,76.40
2023-05-04T02:42:41.009Z,76.40
2023-05-04T02:45:08.267Z,76.01
2023-05-04T02:47:34.931Z,75.33
2023-05-04T02:50:01.748Z,75.53
2023-05-04T02:52:28.762Z,75.27
2023-05-04T02:54:55.492Z,74.63
2023-05-04T02:57:22.123Z,74.82
2023-05-04T02:59:48.790Z,75.20
2023-05-04T03:02:15.333Z,75.53
2023-05-04T03:04:41.922Z,77.98
2023-05-04T03:07:09.774Z,79.28
2023-05-04T03:09:36.416Z,79.70
2023-05-04T03:12:03.877Z,79.02
2023-05-04T03:14:31.461Z,78.09
2023-05-04T03:16:58.498Z,77.23
2023-05-04T03:19:25.264Z,78.01
2023-05-04T03:21:51.890Z,78.66
2023-05-04T03:24:19.063Z,78.37
2023-05-04T03:32:05.779Z,77.97
2023-05-04T03:34:32.510Z,78.60
2023-05-04T03:36:59.234Z,78.48
2023-05-04T03:39:25.805Z,78.26
2023-05-04T03:41:52.711Z,77.65
2023-05-04T03:44:19.406Z,77.66
2023-05-04T03:46:46.000Z,78.71
2023-05-04T03:49:14.190Z,78.21
2023-05-04T03:51:40.884Z,79.77
2023-05-04T03:54:07.447Z,78.75
2023-05-04T03:56:34.012Z,79.03
2023-05-04T03:59:01.406Z,79.97
2023-05-04T04:01:27.985Z,80.58
2023-05-04T04:03:54.783Z,81.58
2023-05-04T04:06:22.914Z,81.84
2023-05-04T04:08:49.596Z,81.66
2023-05-04T04:11:16.201Z,80.89
2023-05-04T04:13:42.871Z,82.68
2023-05-04T04:16:09.611Z,83.88
2023-05-04T04:18:36.277Z,83.64
2023-05-04T04:21:03.489Z,83.47
2023-05-04T04:23:30.058Z,84.40
2023-05-04T04:25:56.701Z,85.51
2023-05-04T04:28:23.252Z,86.50
2023-05-04T04:30:49.929Z,86.66
2023-05-04T04:33:17.053Z,85.62
2023-05-04T04:35:43.846Z,85.96
2023-05-04T04:38:10.453Z,85.09
2023-05-04T04:40:37.095Z,84.47
2023-05-04T04:43:03.743Z,85.41
2023-05-04T04:45:31.788Z,85.34
2023-05-04T04:47:59.792Z,85.33
2023-05-04T04:50:26.455Z,84.79
2023-05-04T04:52:53.159Z,85.04
2023-05-04T04:55:20.260Z,82.88
2023-05-04T04:57:47.059Z,82.59
2023-05-04T05:00:14.513Z,83.44
2023-05-04T05:02:41.278Z,82.34
2023-05-04T05:05:08.550Z,82.68
2023-05-04T05:07:36.517Z,82.85
2023-05-04T05:10:03.752Z,82.11
2023-05-04T05:12:31.113Z,81.84
2023-05-04T05:14:57.682Z,77.71
2023-05-04T05:17:24.248Z,74.02
2023-05-04T05:19:51.104Z,70.63
2023-05-04T05:22:17.809Z,70.51
2023-05-04T05:24:44.439Z,69.97
2023-05-04T05:27:11.085Z,67.30
2023-05-04T05:29:38.559Z,66.40
2023-05-04T05:32:05.513Z,67.67
2023-05-04T05:34:32.979Z,66.12
2023-05-04T05:36:59.764Z,64.35
2023-05-04T05:39:26.379Z,68.17
2023-05-04T05:41:57.359Z,66.10
2023-05-04T05:44:24.324Z,68.12
2023-05-04T05:46:51.032Z,70.52
2023-05-04T05:49:17.601Z,67.53
2023-05-04T05:51:44.300Z,66.70
2023-05-04T05:54:10.982Z,62.45
2023-05-04T05:56:37.578Z,59.33
2023-05-04T05:59:04.396Z,62.74
2023-05-04T06:01:31.060Z,70.48
2023-05-04T06:03:57.944Z,70.75
2023-05-04T06:06:24.864Z,70.05
2023-05-04T06:08:51.579Z,68.82
2023-05-04T06:11:18.291Z,64.58
2023-05-04T06:13:44.958Z,64.41
2023-05-04T06:16:11.544Z,62.59
2023-05-04T06:18:38.139Z,68.36
2023-05-04T06:21:04.889Z,61.61
2023-05-04T06:23:31.920Z,65.22
2023-05-04T06:26:01.178Z,65.24
2023-05-04T06:28:27.844Z,70.37
2023-05-04T06:30:54.485Z,67.75
2023-05-04T06:33:21.115Z,69.50
2023-05-04T06:35:47.698Z,66.71
2023-05-04T06:38:14.335Z,64.18
2023-05-04T06:40:41.229Z,65.26
2023-05-04T06:43:07.889Z,67.94
2023-05-04T06:45:35.650Z,67.55
2023-05-04T06:48:03.324Z,65.59
2023-05-04T06:50:30.518Z,66.49
2023-05-04T06:53:15.168Z,51.25
2023-05-04T06:55:41.893Z,63.27
2023-05-04T06:58:08.568Z,62.81
2023-05-04T07:00:35.453Z,65.32
2023-05-04T07:03:02.128Z,63.09
2023-05-04T07:05:29.082Z,57.02
2023-05-04T07:07:55.791Z,48.40
2023-05-04T07:10:22.383Z,50.11
2023-05-04T07:12:49.602Z,56.13
2023-05-04T07:15:16.240Z,62.98
2023-05-04T07:17:42.977Z,56.95
2023-05-04T07:20:10.379Z,59.59
2023-05-04T07:22:37.000Z,62.06
2023-05-04T07:25:04.286Z,58.57
2023-05-04T07:27:31.473Z,58.47
2023-05-04T07:29:58.237Z,61.14
2023-05-04T07:32:24.839Z,53.48
2023-05-04T07:34:51.530Z,59.14
2023-05-04T07:37:18.125Z,51.25
2023-05-04T07:39:45.173Z,40.31
2023-05-04T07:42:11.878Z,51.49
2023-05-04T07:44:38.789Z,53.78
2023-05-04T07:47:05.720Z,53.80
2023-05-04T07:49:32.772Z,44.38
2023-05-04T07:51:59.679Z,43.68
2023-05-04T07:54:26.314Z,51.32
2023-05-04T07:56:52.948Z,47.68
2023-05-04T07:59:20.301Z,47.38
2023-05-04T08:01:47.384Z,44.60
2023-05-04T08:04:14.295Z,42.39
2023-05-04T08:06:41.773Z,48.87
2023-05-04T08:09:08.615Z,52.29
2023-05-04T08:11:35.482Z,45.81
2023-05-04T08:14:02.213Z,44.82
2023-05-04T08:16:29.614Z,48.86
2023-05-04T08:18:57.175Z,43.90
2023-05-04T08:21:23.971Z,36.34
2023-05-04T08:23:50.590Z,47.58
2023-05-04T08:26:17.463Z,36.50
2023-05-04T08:28:45.765Z,39.04
2023-05-04T08:31:13.382Z,41.67
2023-05-04T08:33:40.077Z,32.24
2023-05-04T08:36:08.209Z,37.95
2023-05-04T08:38:35.032Z,42.87
2023-05-04T08:41:03.853Z,43.05
2023-05-04T08:43:31.516Z,41.04
2023-05-04T08:45:58.120Z,35.34
2023-05-04T08:48:24.932Z,41.13
2023-05-04T08:50:51.890Z,39.25
2023-05-04T08:53:21.513Z,36.77
2023-05-04T08:55:49.881Z,40.69
2023-05-04T08:58:19.975Z,35.37
2023-05-04T09:00:46.938Z,33.24
2023-05-04T09:03:14.853Z,33.22
2023-05-04T09:05:46.247Z,38.19
2023-05-04T09:08:13.436Z,30.66
2023-05-04T09:10:40.215Z,38.86
2023-05-04T09:13:06.848Z,34.11
2023-05-04T09:15:33.537Z,34.10
2023-05-04T09:18:07.502Z,32.92
2023-05-04T09:20:47.320Z,34.12
2023-05-04T09:23:15.143Z,34.12
2023-05-04T09:25:50.223Z,35.17
2023-05-04T09:28:18.453Z,32.48
2023-05-04T09:30:51.146Z,33.94
2023-05-04T09:33:26.270Z,32.04
2023-05-04T09:35:53.163Z,34.85
2023-05-04T09:38:31.619Z,32.07
2023-05-04T09:40:58.389Z,33.77
2023-05-04T09:43:25.192Z,33.61
2023-05-04T09:45:52.033Z,32.52
2023-05-04T09:48:29.048Z,30.63
2023-05-04T09:50:56.676Z,35.14
2023-05-04T09:53:25.217Z,34.58
2023-05-04T09:56:14.351Z,34.46
2023-05-04T09:58:43.471Z,32.90
2023-05-04T10:01:10.636Z,32.89
2023-05-04T10:03:46.232Z,31.27
2023-05-04T10:06:13.188Z,32.09
2023-05-04T10:08:41.259Z,32.75
2023-05-04T10:11:08.657Z,34.14
2023-05-04T10:13:35.540Z,35.33
2023-05-04T10:16:31.840Z,35.37
2023-05-04T10:19:10.946Z,36.12
2023-05-04T10:22:03.431Z,37.40
2023-05-04T10:24:37.276Z,36.76
2023-05-04T10:27:21.718Z,35.31
2023-05-04T10:29:50.772Z,35.54
2023-05-04T10:32:22.221Z,37.49
2023-05-04T10:34:49.362Z,38.04
2023-05-04T10:37:19.548Z,38.12
2023-05-04T10:39:54.046Z,37.81
2023-05-04T10:42:21.680Z,37.97
2023-05-04T10:44:53.506Z,37.76
2023-05-04T10:47:33.996Z,40.62
2023-05-04T10:50:07.457Z,40.27
2023-05-04T10:52:58.284Z,41.04
2023-05-04T10:55:26.466Z,40.09
2023-05-04T10:57:56.081Z,39.76
2023-05-04T11:00:24.512Z,40.04
2023-05-04T11:02:51.091Z,40.22
2023-05-04T11:05:20.243Z,41.52
2023-05-04T11:07:47.732Z,39.37
2023-05-04T11:10:24.441Z,40.72
2023-05-04T11:12:51.174Z,41.52
2023-05-04T11:15:19.055Z,41.52
2023-05-04T11:17:49.427Z,40.33
2023-05-04T11:20:26.090Z,41.86
2023-05-04T11:22:53.392Z,39.93
2023-05-04T11:25:29.662Z,42.18
2023-05-04T11:27:56.937Z,43.84
2023-05-04T11:30:30.316Z,42.85
2023-05-04T11:32:57.523Z,42.54
2023-05-04T11:35:24.920Z,40.37
2023-05-04T11:37:51.784Z,43.08
2023-05-04T11:40:19.916Z,43.01
2023-05-04T11:42:46.729Z,40.99
2023-05-04T11:45:13.269Z,41.79
2023-05-04T11:47:40.212Z,42.11
2023-05-04T11:50:07.374Z,43.31
2023-05-04T11:52:36.441Z,41.45
2023-05-04T11:55:03.391Z,40.77
2023-05-04T11:57:33.064Z,39.42
2023-05-04T11:59:59.538Z,39.74
2023-05-04T12:02:26.969Z,37.65
2023-05-04T12:04:53.939Z,39.69
2023-05-04T12:07:20.470Z,38.65
2023-05-04T12:09:48.010Z,38.78
2023-05-04T12:12:19.049Z,38.77
2023-05-04T12:14:52.159Z,38.44
2023-05-04T12:17:20.381Z,39.69
2023-05-04T12:19:55.721Z,40.36
2023-05-04T12:22:28.838Z,39.96
2023-05-04T12:25:01.588Z,40.23
2023-05-04T12:27:28.069Z,39.24
2023-05-04T12:29:54.887Z,39.85
2023-05-04T12:32:21.600Z,40.17
2023-05-04T12:34:48.187Z,42.20
2023-05-04T12:37:14.598Z,41.88
2023-05-04T12:39:41.176Z,42.51
2023-05-04T12:42:07.726Z,40.86
2023-05-04T12:44:34.597Z,42.52
2023-05-04T12:47:01.141Z,41.16
2023-05-04T12:49:29.853Z,40.68
2023-05-04T12:51:58.160Z,41.00
2023-05-04T12:54:24.602Z,40.81
2023-05-04T12:56:51.219Z,43.40
2023-05-04T12:59:17.748Z,42.46
2023-05-04T13:01:44.283Z,43.04
2023-05-04T13:04:11.076Z,41.99
2023-05-04T13:06:38.103Z,39.94
2023-05-04T13:09:06.049Z,43.28
2023-05-04T13:11:32.707Z,43.52
2023-05-04T13:13:59.124Z,44.07
2023-05-04T13:16:26.959Z,42.09
2023-05-04T13:18:59.853Z,41.73
2023-05-04T13:21:26.277Z,42.81
2023-05-04T13:23:53.028Z,45.46
2023-05-04T13:26:19.501Z,43.83
2023-05-04T13:28:46.323Z,44.72
2023-05-04T13:31:12.855Z,44.24
2023-05-04T13:33:39.319Z,45.14
2023-05-04T13:36:06.915Z,45.49
2023-05-04T13:38:33.561Z,44.96
2023-05-04T13:41:00.165Z,45.41
2023-05-04T13:43:27.004Z,44.86
2023-05-04T13:45:53.570Z,45.56
2023-05-04T13:48:20.002Z,45.78
2023-05-04T13:50:46.440Z,43.82
2023-05-04T13:53:13.231Z,44.04
2023-05-04T13:55:39.734Z,44.07
2023-05-04T13:58:06.116Z,46.03
2023-05-04T14:00:32.651Z,45.54
2023-05-04T14:02:59.542Z,44.58
2023-05-04T14:05:26.349Z,44.20
2023-05-04T14:07:52.876Z,45.47
2023-05-04T14:10:19.301Z,43.37
2023-05-04T14:12:45.759Z,44.51
2023-05-04T14:15:12.270Z,44.30
2023-05-04T14:20:06.784Z,44.71
2023-05-04T14:22:34.605Z,43.21
2023-05-04T14:25:02.214Z,43.81
2023-05-04T14:27:31.306Z,44.22
2023-05-04T14:29:58.158Z,45.50
2023-05-04T14:32:24.638Z,43.25
2023-05-04T14:34:52.286Z,44.53
2023-05-04T14:37:18.720Z,43.38
2023-05-04T14:39:45.271Z,44.96
2023-05-04T14:42:11.761Z,43.31
2023-05-04T14:44:38.229Z,42.75
2023-05-04T14:47:07.400Z,43.16
2023-05-04T14:49:37.195Z,44.17
2023-05-04T14:52:04.268Z,43.40
2023-05-04T14:54:30.739Z,42.75
2023-05-04T14:56:58.781Z,43.74
2023-05-04T14:59:25.780Z,43.73
2023-05-04T15:01:52.328Z,44.57
2023-05-04T15:04:19.093Z,45.34
2023-05-04T15:06:46.796Z,44.35
2023-05-04T15:09:13.228Z,44.37
2023-05-04T15:11:39.686Z,44.83
2023-05-04T15:14:06.293Z,45.85
2023-05-04T15:16:33.125Z,44.29
2023-05-04T15:19:00.002Z,46.38
2023-05-04T15:21:27.993Z,45.18
2023-05-04T15:23:54.577Z,43.84
2023-05-04T15:26:22.343Z,45.47
2023-05-04T15:28:49.140Z,45.37
2023-05-04T15:31:17.366Z,46.00
2023-05-04T15:33:44.041Z,45.84
2023-05-04T15:36:10.805Z,45.74
2023-05-04T15:38:37.393Z,45.89
2023-05-04T15:41:05.509Z,44.63
2023-05-04T15:43:32.298Z,45.84
2023-05-04T15:45:58.707Z,44.95
2023-05-04T15:48:25.192Z,44.79
2023-05-04T15:50:51.604Z,46.42
2023-05-04T15:53:18.174Z,46.35
2023-05-04T15:55:44.730Z,47.27
2023-05-04T15:58:11.291Z,44.98
2023-05-04T16:00:38.287Z,45.81
2023-05-04T16:03:05.580Z,46.25
2023-05-04T16:05:32.153Z,45.43
2023-05-04T16:07:58.978Z,44.08
2023-05-04T16:10:25.594Z,44.84
2023-05-04T16:12:52.040Z,45.57
2023-05-04T16:15:18.612Z,44.60
2023-05-04T16:17:45.163Z,45.31
2023-05-04T16:20:11.720Z,46.55
2023-05-04T16:22:38.207Z,45.71
2023-05-04T16:25:05.057Z,45.79
2023-05-04T16:27:31.603Z,45.91
2023-05-04T16:29:58.028Z,45.54
2023-05-04T16:32:24.557Z,45.86
2023-05-04T16:34:51.039Z,46.16
2023-05-04T16:37:18.932Z,46.05
2023-05-04T16:39:45.431Z,45.47
2023-05-04T16:42:11.883Z,46.18
2023-05-04T16:44:38.707Z,46.87
2023-05-04T16:47:05.556Z,47.40
2023-05-04T16:49:32.291Z,45.62
2023-05-04T16:51:58.797Z,45.52
2023-05-04T16:54:25.269Z,46.85
2023-05-04T16:56:52.358Z,47.38
2023-05-04T16:59:18.845Z,46.80
2023-05-04T17:01:45.347Z,47.02
2023-05-04T17:04:11.959Z,46.71
2023-05-04T17:06:39.624Z,48.39
2023-05-04T17:09:06.218Z,47.59
2023-05-04T17:11:33.193Z,47.70
2023-05-04T17:14:00.265Z,48.61
2023-05-04T17:16:26.761Z,47.02
2023-05-04T17:18:53.452Z,47.83
2023-05-04T17:21:19.945Z,48.25
2023-05-04T17:23:46.663Z,48.26
2023-05-04T17:26:13.264Z,49.07
2023-05-04T17:28:39.754Z,48.95
2023-05-04T17:31:09.463Z,48.93
2023-05-04T17:33:35.976Z,49.27
2023-05-04T17:36:03.896Z,50.15
2023-05-04T17:38:30.529Z,49.62
2023-05-04T17:41:48.736Z,49.98
2023-05-04T17:44:16.512Z,49.51
2023-05-04T17:46:43.977Z,50.93
2023-05-04T17:49:11.097Z,51.02
2023-05-04T17:51:39.252Z,51.49
2023-05-04T17:54:06.039Z,51.16
2023-05-04T17:56:32.924Z,52.11
2023-05-04T17:59:02.729Z,52.34
2023-05-04T18:01:29.371Z,52.95
2023-05-04T18:03:57.035Z,53.39
2023-05-04T18:06:23.714Z,53.12
2023-05-04T18:08:50.411Z,53.69
2023-05-04T18:11:16.980Z,52.69
2023-05-04T18:13:43.614Z,54.26
2023-05-04T18:16:10.772Z,55.00
2023-05-04T18:18:37.707Z,52.27
2023-05-04T18:21:04.838Z,53.59
2023-05-04T18:23:31.752Z,54.98
2023-05-04T18:25:58.484Z,52.55
2023-05-04T18:28:25.366Z,55.99
2023-05-04T18:30:51.958Z,55.69
2023-05-04T18:33:18.676Z,56.62
2023-05-04T18:35:45.351Z,56.35
2023-05-04T18:38:11.908Z,52.56
2023-05-04T18:40:38.496Z,53.43
2023-05-04T18:43:05.199Z,53.38
2023-05-04T18:45:31.836Z,56.36
2023-05-04T18:47:58.526Z,57.40
2023-05-04T18:50:25.282Z,57.55
2023-05-04T18:52:54.154Z,56.03
2023-05-04T18:55:21.058Z,55.31
2023-05-04T18:57:48.013Z,55.44
2023-05-04T19:00:15.578Z,57.14
2023-05-04T19:02:42.303Z,58.88
2023-05-04T19:05:10.415Z,57.57
2023-05-04T19:07:38.598Z,58.96
2023-05-04T19:10:06.675Z,61.02
2023-05-04T19:12:33.797Z,61.34
2023-05-04T19:15:00.835Z,62.49
2023-05-04T19:17:27.706Z,59.68
2023-05-04T19:19:54.550Z,63.78
2023-05-04T19:22:21.187Z,60.48
2023-05-04T19:24:51.779Z,63.32
2023-05-04T19:27:18.667Z,63.75
2023-05-04T19:29:45.606Z,62.24
2023-05-04T19:32:22.863Z,65.14
2023-05-04T19:34:51.616Z,65.32
2023-05-04T19:37:18.231Z,63.24
2023-05-04T19:39:45.005Z,62.79
2023-05-04T19:42:11.703Z,63.94
2023-05-04T19:44:39.378Z,65.15
2023-05-04T19:47:06.799Z,62.16
2023-05-04T19:49:33.496Z,62.32
2023-05-04T19:52:00.524Z,64.67
2023-05-04T19:54:27.461Z,62.63
2023-05-04T19:56:54.298Z,66.65
2023-05-04T19:59:20.878Z,65.31
2023-05-04T20:01:47.526Z,63.96
2023-05-04T20:04:14.169Z,65.20
2023-05-04T20:06:40.768Z,64.03
2023-05-04T20:09:07.561Z,63.62
2023-05-04T20:11:35.954Z,65.95
2023-05-04T20:14:02.706Z,69.48
2023-05-04T20:16:29.516Z,68.90
2023-05-04T20:18:56.397Z,65.78
2023-05-04T20:21:23.187Z,70.96
2023-05-04T20:23:49.838Z,68.10
2023-05-04T20:26:16.537Z,70.20
2023-05-04T20:28:43.141Z,67.05
2023-05-04T20:31:09.800Z,67.79
2023-05-04T20:33:36.846Z,69.37
2023-05-04T20:36:06.108Z,69.05
2023-05-04T20:38:33.099Z,67.37
2023-05-04T20:41:09.531Z,71.14
2023-05-04T20:43:36.546Z,69.84
2023-05-04T20:46:04.489Z,68.47
2023-05-04T20:48:31.775Z,72.30
2023-05-04T20:51:10.444Z,74.08
2023-05-04T20:53:41.737Z,72.09
2023-05-04T20:56:09.130Z,74.05
2023-05-04T20:58:35.730Z,73.68
2023-05-04T21:01:03.969Z,71.17
2023-05-04T21:03:30.995Z,73.95
2023-05-04T21:05:58.147Z,71.91
2023-05-04T21:08:24.863Z,73.25
2023-05-04T21:10:52.227Z,74.21
2023-05-04T21:13:19.547Z,73.81
2023-05-04T21:15:46.201Z,74.53
2023-05-04T21:18:12.970Z,72.80
2023-05-04T21:20:39.715Z,72.64
2023-05-04T21:23:06.853Z,73.30
2023-05-04T21:25:33.808Z,73.42
2023-05-04T21:28:00.720Z,74.71
2023-05-04T21:30:27.698Z,75.47
2023-05-04T21:32:54.372Z,75.59
2023-05-04T21:35:22.059Z,76.46
2023-05-04T21:37:49.240Z,77.22
2023-05-04T21:40:16.543Z,75.13
2023-05-04T21:42:43.206Z,78.93
2023-05-04T21:45:10.145Z,79.13
2023-05-04T21:47:37.139Z,78.71
2023-05-04T21:50:04.292Z,78.21
2023-05-04T21:52:30.992Z,78.41
2023-05-04T21:54:57.711Z,78.98
2023-05-04T21:57:25.905Z,78.27
2023-05-04T21:59:52.583Z,77.98
2023-05-04T22:02:19.472Z,76.24
2023-05-04T22:04:46.210Z,77.95
2023-05-04T22:07:13.361Z,77.69
2023-05-04T22:09:40.195Z,78.02
2023-05-04T22:12:07.575Z,76.09
2023-05-04T22:14:34.247Z,77.58
2023-05-04T22:17:00.968Z,78.42
2023-05-04T22:19:27.650Z,77.04
2023-05-04T22:21:54.248Z,79.43
2023-05-04T22:24:21.152Z,82.01
2023-05-04T22:26:47.720Z,80.98
2023-05-04T22:29:14.393Z,80.31
2023-05-04T22:31:41.027Z,79.41
2023-05-04T22:34:07.722Z,81.89
2023-05-04T22:36:34.362Z,80.53
2023-05-04T22:39:00.949Z,79.96
2023-05-04T22:41:27.570Z,79.62
2023-05-04T22:43:54.146Z,80.57
2023-05-04T22:46:21.345Z,78.71
2023-05-04T22:48:48.070Z,79.21
2023-05-04T22:51:16.108Z,77.91
2023-05-04T22:53:42.787Z,80.76
2023-05-04T22:56:09.729Z,82.60
2023-05-04T22:58:36.370Z,82.43
2023-05-04T23:01:03.018Z,81.14
2023-05-04T23:03:29.800Z,79.50
2023-05-04T23:05:59.932Z,82.66
2023-05-04T23:08:26.603Z,83.35
2023-05-04T23:10:53.223Z,83.37
2023-05-04T23:13:19.966Z,82.17
2023-05-04T23:15:46.927Z,83.99
2023-05-04T23:18:13.937Z,84.30
2023-05-04T23:20:40.807Z,83.59
2023-05-04T23:23:07.413Z,82.50
2023-05-04T23:25:34.138Z,83.98
2023-05-04T23:28:00.730Z,82.30
2023-05-04T23:30:27.498Z,83.90
2023-05-04T23:32:54.138Z,81.58
2023-05-04T23:35:20.845Z,83.34
2023-05-04T23:37:47.509Z,84.03
2023-05-04T23:40:14.133Z,84.01
2023-05-04T23:42:40.740Z,86.72
2023-05-04T23:45:07.907Z,87.37
2023-05-04T23:47:34.821Z,88.01
2023-05-04T23:50:01.774Z,88.51
2023-05-04T23:52:28.510Z,84.17
2023-05-04T23:54:55.212Z,88.05
2023-05-04T23:57:21.796Z,87.29
2023-05-04T23:59:48.416Z,88.74
